CheckWX is a tool to help pilots better visualize weather data.  It is not intended as a substitute for an official pre-flight weather briefing.

20:33:15 UTC

KRRL METAR
Merrill Municipal Airport
Merrill, Wisconsin, USA
Current

18 mins ago

KRRL 182015Z AUTO 23003KT 10SM CLR M06/M16 A3037 RMK AO2 T10571156 TSNO
Observed
Feb-18 @ 20:15 UTC
Wind
  • 230° at 3 KTS
Visibility
10 SM
Flight Rules
VFR
Cloud Levels
  • Clear skies
Temperature
-6°C / 21°F
Dewpoint
-16°C / 3°F
Humidity
45%
Altimeter
30.37" Hg
Pressure
1028.42 hPa
Previous

58 mins ago

KRRL 181935Z AUTO 33005KT 10SM CLR M06/M16 A3036 RMK AO2 T10611159 TSNO
Observed
Feb-18 @ 19:35 UTC
Wind
  • 330° at 5 KTS
Visibility
10 SM
Flight Rules
VFR
Cloud Levels
  • Clear skies
Temperature
-6°C / 21°F
Dewpoint
-16°C / 3°F
Humidity
45%
Altimeter
30.36" Hg
Pressure
1028.12 hPa
Previous

1 hour ago

KRRL 181915Z AUTO 00000KT 10SM CLR M06/M15 A3036 RMK AO2 T10651154 TSNO
Observed
Feb-18 @ 19:15 UTC
Visibility
10 SM
Flight Rules
VFR
Cloud Levels
  • Clear skies
Temperature
-7°C / 19°F
Dewpoint
-15°C / 5°F
Humidity
53%
Altimeter
30.36" Hg
Pressure
1028.12 hPa